Time;durP1;ratioP1;P1;durP2;ratioP2;P2;SDS_P1;SDS_P2;PMS_P1;PMS_P2;Temp;Humidity;BMP_temperature;BMP_pressure;BME280_temperature;BME280_humidity;BME280_pressure;Samples;Min_cycle;Max_cycle;Signal;HPM_P1;HPM_P2
2023/12/21 00:00:59;;;;;;;58.17;35.58;;;;;;;;;;6077669;29;20116;-86
2023/12/21 00:04:02;;;;;;;57.25;33.38;;;;;;;;;;6083627;29;20365;-87
2023/12/21 00:07:04;;;;;;;55.35;33.80;;;;;;;;;;6082424;29;20119;-87
2023/12/21 00:10:08;;;;;;;53.22;33.47;;;;;;;;;;6083839;29;20061;-88
2023/12/21 00:13:10;;;;;;;55.67;32.33;;;;;;;;;;6085020;29;20056;-88
2023/12/21 00:16:12;;;;;;;56.97;33.78;;;;;;;;;;6081367;29;20071;-81
2023/12/21 00:19:14;;;;;;;52.78;33.88;;;;;;;;;;6078103;29;20136;-79
2023/12/21 00:22:15;;;;;;;51.88;33.50;;;;;;;;;;6078612;29;20057;-80
2023/12/21 00:25:19;;;;;;;53.60;33.13;;;;;;;;;;6077210;29;20060;-79
2023/12/21 00:28:20;;;;;;;54.17;33.00;;;;;;;;;;6078815;29;20072;-78
2023/12/21 00:31:22;;;;;;;54.47;33.75;;;;;;;;;;6080181;29;20049;-78
2023/12/21 00:34:24;;;;;;;59.80;34.65;;;;;;;;;;6081961;29;20247;-79
2023/12/21 00:37:26;;;;;;;59.97;36.03;;;;;;;;;;6085054;29;20104;-78
2023/12/21 00:40:29;;;;;;;55.15;34.58;;;;;;;;;;6082991;29;20062;-79
2023/12/21 00:43:31;;;;;;;58.55;34.65;;;;;;;;;;6088274;29;20044;-79
2023/12/21 00:46:32;;;;;;;58.00;33.10;;;;;;;;;;6086631;29;20052;-79
2023/12/21 00:49:34;;;;;;;52.63;32.50;;;;;;;;;;6088020;29;20060;-79
2023/12/21 00:52:37;;;;;;;57.15;32.55;;;;;;;;;;6090719;29;20067;-78
2023/12/21 00:55:40;;;;;;;49.55;30.95;;;;;;;;;;6083885;29;20059;-81
2023/12/21 00:58:42;;;;;;;54.00;32.33;;;;;;;;;;6083004;29;20049;-80
2023/12/21 01:01:43;;;;;;;56.20;33.47;;;;;;;;;;6085015;29;20040;-79
2023/12/21 01:04:45;;;;;;;54.40;31.27;;;;;;;;;;6081417;29;20083;-79
2023/12/21 01:07:47;;;;;;;58.83;33.15;;;;;;;;;;6086337;29;20488;-79
2023/12/21 01:10:50;;;;;;;51.75;33.13;;;;;;;;;;6080253;29;20060;-81
2023/12/21 01:13:52;;;;;;;56.35;33.47;;;;;;;;;;6080410;29;20314;-79
2023/12/21 01:16:54;;;;;;;58.88;35.35;;;;;;;;;;6083620;29;20067;-79
2023/12/21 01:19:56;;;;;;;54.42;33.58;;;;;;;;;;6084445;29;20061;-79
2023/12/21 01:22:58;;;;;;;52.53;32.78;;;;;;;;;;6082823;29;20088;-79
2023/12/21 01:26:01;;;;;;;56.38;33.45;;;;;;;;;;6083752;29;20060;-78
2023/12/21 01:29:02;;;;;;;52.33;32.50;;;;;;;;;;6081891;29;20080;-79
2023/12/21 01:32:05;;;;;;;55.50;32.70;;;;;;;;;;6081160;29;20064;-79
2023/12/21 01:35:08;;;;;;;61.15;33.60;;;;;;;;;;6083914;29;20067;-78
2023/12/21 01:38:09;;;;;;;54.53;33.72;;;;;;;;;;6087338;29;20367;-78
2023/12/21 01:41:13;;;;;;;54.67;33.90;;;;;;;;;;6088655;29;20064;-82
2023/12/21 01:44:15;;;;;;;57.55;33.88;;;;;;;;;;6085957;29;20068;-79
2023/12/21 01:47:17;;;;;;;59.25;34.85;;;;;;;;;;6080413;29;20060;-79
2023/12/21 01:50:19;;;;;;;60.40;34.63;;;;;;;;;;6089198;29;20060;-79
2023/12/21 01:53:21;;;;;;;61.25;35.88;;;;;;;;;;6086007;29;20072;-81
2023/12/21 01:56:24;;;;;;;79.97;37.20;;;;;;;;;;6085453;29;20066;-80
2023/12/21 01:59:26;;;;;;;63.53;35.88;;;;;;;;;;6080095;29;20053;-79
2023/12/21 02:02:28;;;;;;;64.45;37.00;;;;;;;;;;6080855;29;20101;-78
2023/12/21 02:05:30;;;;;;;58.38;35.15;;;;;;;;;;6082504;29;20064;-80
2023/12/21 02:08:31;;;;;;;59.88;36.55;;;;;;;;;;6079983;29;20092;-80
2023/12/21 02:11:35;;;;;;;58.60;34.67;;;;;;;;;;6084320;29;20071;-79
2023/12/21 02:14:37;;;;;;;65.32;36.28;;;;;;;;;;6085647;29;20056;-81
2023/12/21 02:17:41;;;;;;;60.80;36.72;;;;;;;;;;6084921;29;20060;-79
2023/12/21 02:20:43;;;;;;;61.00;36.25;;;;;;;;;;6085107;29;20552;-78
2023/12/21 02:23:46;;;;;;;61.00;35.53;;;;;;;;;;6079875;29;20075;-78
2023/12/21 02:26:50;;;;;;;60.42;35.30;;;;;;;;;;6090257;29;20056;-79
2023/12/21 02:29:51;;;;;;;61.10;35.70;;;;;;;;;;6082582;29;20288;-79
2023/12/21 02:32:53;;;;;;;57.95;35.95;;;;;;;;;;6079660;29;20052;-79
2023/12/21 02:35:55;;;;;;;59.30;35.72;;;;;;;;;;6083014;29;20256;-80
2023/12/21 02:38:57;;;;;;;61.08;34.90;;;;;;;;;;6086883;29;20061;-78
2023/12/21 02:42:00;;;;;;;63.38;36.15;;;;;;;;;;6085751;29;20056;-81
2023/12/21 02:45:01;;;;;;;55.08;35.08;;;;;;;;;;6084709;29;20400;-81
2023/12/21 02:48:03;;;;;;;59.13;35.63;;;;;;;;;;6083487;29;20344;-87
2023/12/21 02:51:05;;;;;;;60.58;35.08;;;;;;;;;;6085431;29;20056;-87
2023/12/21 02:54:07;;;;;;;62.03;36.00;;;;;;;;;;6067460;29;20060;-86
2023/12/21 02:57:11;;;;;;;61.45;35.95;;;;;;;;;;6078916;29;20080;-87
2023/12/21 03:00:14;;;;;;;57.90;37.00;;;;;;;;;;6081003;29;20395;-88
2023/12/21 03:03:16;;;;;;;55.88;35.75;;;;;;;;;;6079802;29;20056;-86
2023/12/21 03:06:18;;;;;;;60.83;35.67;;;;;;;;;;6084057;29;20367;-87
2023/12/21 03:09:19;;;;;;;61.20;36.40;;;;;;;;;;6089239;29;20305;-87
2023/12/21 03:12:22;;;;;;;62.10;36.92;;;;;;;;;;6085405;29;20060;-88
2023/12/21 03:15:24;;;;;;;61.33;36.45;;;;;;;;;;6084478;29;20402;-86
2023/12/21 03:18:26;;;;;;;57.30;35.33;;;;;;;;;;6084658;29;20064;-86
2023/12/21 03:21:28;;;;;;;61.13;38.03;;;;;;;;;;6082655;29;20382;-87
2023/12/21 03:24:31;;;;;;;59.78;37.00;;;;;;;;;;6088481;29;20067;-89
2023/12/21 03:27:34;;;;;;;58.88;35.53;;;;;;;;;;6085815;29;20049;-88
2023/12/21 03:30:36;;;;;;;62.30;36.37;;;;;;;;;;6081430;29;20112;-86
2023/12/21 03:33:38;;;;;;;64.85;37.33;;;;;;;;;;6081938;29;20048;-87
2023/12/21 03:36:40;;;;;;;60.38;36.50;;;;;;;;;;6084454;29;20054;-88
2023/12/21 03:39:42;;;;;;;57.85;35.25;;;;;;;;;;6089553;29;20060;-88
2023/12/21 03:42:49;;;;;;;55.45;36.47;;;;;;;;;;6080722;29;20049;-89
2023/12/21 03:45:51;;;;;;;60.97;36.55;;;;;;;;;;6080524;29;20080;-87
2023/12/21 03:48:53;;;;;;;63.90;37.10;;;;;;;;;;6080810;29;20051;-86
2023/12/21 03:51:55;;;;;;;59.75;35.83;;;;;;;;;;6084559;29;20053;-85
2023/12/21 03:54:56;;;;;;;63.58;36.75;;;;;;;;;;6081066;29;20054;-87
2023/12/21 03:57:59;;;;;;;57.17;35.55;;;;;;;;;;6079815;29;20053;-87
2023/12/21 04:01:01;;;;;;;61.05;34.88;;;;;;;;;;6088589;29;20056;-86
2023/12/21 04:04:03;;;;;;;57.00;35.90;;;;;;;;;;6085679;29;20116;-88
2023/12/21 04:07:05;;;;;;;61.03;34.95;;;;;;;;;;6061137;29;20056;-88
2023/12/21 04:10:08;;;;;;;60.75;35.13;;;;;;;;;;6080443;29;20255;-87
2023/12/21 04:13:11;;;;;;;63.40;36.38;;;;;;;;;;6085942;29;20065;-88
2023/12/21 04:16:13;;;;;;;62.20;36.67;;;;;;;;;;6090594;29;20064;-88
2023/12/21 04:19:15;;;;;;;58.30;35.70;;;;;;;;;;6086657;29;20061;-87
2023/12/21 04:22:17;;;;;;;60.75;36.10;;;;;;;;;;6088665;29;20285;-86
2023/12/21 04:25:19;;;;;;;61.10;36.35;;;;;;;;;;6089641;29;20233;-87
2023/12/21 04:28:22;;;;;;;55.60;35.38;;;;;;;;;;6088700;29;20112;-87
2023/12/21 04:31:24;;;;;;;63.22;36.22;;;;;;;;;;6088006;29;20248;-86
2023/12/21 04:34:26;;;;;;;59.92;34.15;;;;;;;;;;6086751;29;20063;-87
2023/12/21 04:37:28;;;;;;;58.78;34.38;;;;;;;;;;6083520;29;20052;-88
2023/12/21 04:40:30;;;;;;;52.15;34.47;;;;;;;;;;6085308;29;20060;-86
2023/12/21 04:43:33;;;;;;;60.00;34.67;;;;;;;;;;6095108;29;20044;-85
2023/12/21 04:46:35;;;;;;;58.73;34.00;;;;;;;;;;6083449;29;20067;-87
2023/12/21 04:49:37;;;;;;;59.05;33.13;;;;;;;;;;6090388;29;20593;-88
2023/12/21 04:52:39;;;;;;;60.95;34.42;;;;;;;;;;6090002;29;20057;-86
2023/12/21 04:55:40;;;;;;;58.35;33.10;;;;;;;;;;6090285;29;20378;-87
2023/12/21 04:58:44;;;;;;;59.47;34.03;;;;;;;;;;6089221;29;20087;-87
2023/12/21 05:01:49;;;;;;;57.20;32.57;;;;;;;;;;6088627;29;20044;-88
2023/12/21 05:04:51;;;;;;;64.05;34.97;;;;;;;;;;6089935;29;20048;-86
2023/12/21 05:07:53;;;;;;;58.65;32.25;;;;;;;;;;6083977;29;20048;-78
2023/12/21 05:10:55;;;;;;;50.22;30.52;;;;;;;;;;6083291;29;20059;-79
2023/12/21 05:13:58;;;;;;;51.35;31.38;;;;;;;;;;6081064;29;20052;-78
2023/12/21 05:17:00;;;;;;;54.30;32.67;;;;;;;;;;6088213;29;20056;-87
2023/12/21 05:20:02;;;;;;;52.42;31.88;;;;;;;;;;6090786;29;20041;-87
2023/12/21 05:23:04;;;;;;;49.42;31.27;;;;;;;;;;6091013;29;20083;-88
2023/12/21 05:26:11;;;;;;;50.83;30.48;;;;;;;;;;6086647;29;20055;-87
2023/12/21 05:29:14;;;;;;;54.65;30.63;;;;;;;;;;6086593;29;20056;-87
2023/12/21 05:32:16;;;;;;;51.35;31.27;;;;;;;;;;6091772;29;20289;-89
2023/12/21 05:38:34;;;;;;;55.10;32.05;;;;;;;;;;6088500;29;20397;-86
2023/12/21 05:41:36;;;;;;;50.40;31.15;;;;;;;;;;6091151;29;20057;-86
2023/12/21 05:44:39;;;;;;;52.58;32.20;;;;;;;;;;6085291;29;20041;-86
2023/12/21 05:47:41;;;;;;;52.67;32.17;;;;;;;;;;6095183;29;20112;-87
2023/12/21 05:50:43;;;;;;;56.38;33.78;;;;;;;;;;6096202;29;20071;-87
2023/12/21 05:53:45;;;;;;;53.72;30.75;;;;;;;;;;6094234;29;20048;-87
2023/12/21 05:56:46;;;;;;;50.78;31.40;;;;;;;;;;6092066;29;20052;-89
2023/12/21 05:59:50;;;;;;;48.05;29.70;;;;;;;;;;6086879;29;20067;-88
2023/12/21 06:02:52;;;;;;;45.40;29.45;;;;;;;;;;6090925;29;20059;-87
2023/12/21 06:05:54;;;;;;;49.22;30.95;;;;;;;;;;6093864;29;20047;-87
2023/12/21 06:08:55;;;;;;;47.67;30.02;;;;;;;;;;6094507;29;20067;-87
2023/12/21 06:11:57;;;;;;;50.72;29.33;;;;;;;;;;6089192;29;20164;-88
2023/12/21 06:15:00;;;;;;;47.25;31.33;;;;;;;;;;6090017;29;20045;-88
2023/12/21 06:18:02;;;;;;;46.65;28.20;;;;;;;;;;6086359;29;20067;-87
2023/12/21 06:21:04;;;;;;;44.55;29.42;;;;;;;;;;6084125;29;20371;-86
2023/12/21 06:24:07;;;;;;;45.83;29.10;;;;;;;;;;6086245;29;20059;-87
2023/12/21 06:27:09;;;;;;;44.15;28.73;;;;;;;;;;6085013;29;20067;-84
2023/12/21 06:30:13;;;;;;;46.15;30.52;;;;;;;;;;6084050;29;20298;-84
2023/12/21 06:33:15;;;;;;;46.17;29.80;;;;;;;;;;6084986;29;20044;-85
2023/12/21 06:36:17;;;;;;;47.78;29.80;;;;;;;;;;6084155;29;20048;-83
2023/12/21 06:39:18;;;;;;;46.55;29.50;;;;;;;;;;6086003;29;20052;-85
2023/12/21 06:42:20;;;;;;;46.42;29.55;;;;;;;;;;6084206;29;20053;-84
2023/12/21 06:45:23;;;;;;;47.38;30.33;;;;;;;;;;6082449;29;20112;-84
2023/12/21 06:48:25;;;;;;;46.28;29.67;;;;;;;;;;6087568;29;20092;-84
2023/12/21 06:51:27;;;;;;;47.20;29.42;;;;;;;;;;6084051;29;20052;-84
2023/12/21 06:54:29;;;;;;;45.08;30.27;;;;;;;;;;6085386;29;20053;-83
2023/12/21 06:57:31;;;;;;;50.30;29.20;;;;;;;;;;6085471;29;20059;-84
2023/12/21 07:00:35;;;;;;;46.33;30.38;;;;;;;;;;6085803;29;20060;-84
2023/12/21 07:03:37;;;;;;;47.55;30.55;;;;;;;;;;6082276;29;20838;-83
2023/12/21 07:06:38;;;;;;;45.50;29.88;;;;;;;;;;6083160;29;20366;-82
2023/12/21 07:09:41;;;;;;;45.28;29.88;;;;;;;;;;6081821;29;20068;-83
2023/12/21 07:12:43;;;;;;;49.08;30.05;;;;;;;;;;6086239;29;24551;-83
2023/12/21 07:15:46;;;;;;;47.28;30.45;;;;;;;;;;6080773;29;20066;-84
2023/12/21 07:18:48;;;;;;;43.77;29.30;;;;;;;;;;6083133;29;20309;-84
2023/12/21 07:21:49;;;;;;;47.58;31.13;;;;;;;;;;6083356;29;20053;-84
2023/12/21 07:24:51;;;;;;;46.42;31.75;;;;;;;;;;6080104;29;20071;-84
2023/12/21 07:27:53;;;;;;;52.42;33.38;;;;;;;;;;6087374;29;20056;-82
2023/12/21 07:30:57;;;;;;;54.38;33.03;;;;;;;;;;6086710;29;20048;-84
2023/12/21 07:33:59;;;;;;;49.50;33.67;;;;;;;;;;6065098;29;20358;-82
2023/12/21 07:37:01;;;;;;;54.42;35.17;;;;;;;;;;6086821;29;20292;-86
2023/12/21 07:40:03;;;;;;;53.50;34.17;;;;;;;;;;6088011;29;20100;-87
2023/12/21 07:43:05;;;;;;;51.33;32.88;;;;;;;;;;6084816;29;20045;-87
2023/12/21 07:46:09;;;;;;;51.80;33.97;;;;;;;;;;6080531;29;20344;-86
2023/12/21 07:49:11;;;;;;;56.38;35.72;;;;;;;;;;6078010;29;20060;-82
2023/12/21 07:52:12;;;;;;;58.25;35.83;;;;;;;;;;6077738;29;20069;-84
2023/12/21 07:55:14;;;;;;;55.67;34.72;;;;;;;;;;6078498;29;20060;-84
2023/12/21 07:58:16;;;;;;;59.80;36.10;;;;;;;;;;6084518;29;20071;-84
2023/12/21 08:01:19;;;;;;;61.95;35.85;;;;;;;;;;6084982;29;20056;-84
2023/12/21 08:04:21;;;;;;;62.85;36.08;;;;;;;;;;6081289;29;20061;-83
2023/12/21 08:07:23;;;;;;;58.67;36.90;;;;;;;;;;6084816;29;20045;-84
2023/12/21 08:10:25;;;;;;;57.10;35.92;;;;;;;;;;6082982;29;20059;-81
2023/12/21 08:13:27;;;;;;;60.28;37.33;;;;;;;;;;6079352;29;20430;-85
2023/12/21 08:16:30;;;;;;;63.38;38.35;;;;;;;;;;6078976;29;20119;-82
2023/12/21 08:19:32;;;;;;;65.70;39.03;;;;;;;;;;6083164;29;20053;-83
2023/12/21 08:22:34;;;;;;;70.35;38.28;;;;;;;;;;6081848;29;20341;-83
2023/12/21 08:25:36;;;;;;;62.70;38.33;;;;;;;;;;6080828;29;20068;-84
2023/12/21 08:28:39;;;;;;;65.10;38.95;;;;;;;;;;6082555;29;20052;-83
2023/12/21 08:31:42;;;;;;;71.25;40.40;;;;;;;;;;6080762;29;20056;-84
2023/12/21 08:34:44;;;;;;;64.60;37.70;;;;;;;;;;6080687;29;20107;-83
2023/12/21 08:37:46;;;;;;;66.28;39.97;;;;;;;;;;6082251;29;20328;-86
2023/12/21 08:40:47;;;;;;;71.90;39.13;;;;;;;;;;6074809;29;20097;-84
2023/12/21 08:43:49;;;;;;;71.20;39.05;;;;;;;;;;6078334;29;20068;-83
2023/12/21 08:46:53;;;;;;;74.97;39.17;;;;;;;;;;6077791;29;20073;-83
2023/12/21 08:50:00;;;;;;;67.55;38.45;;;;;;;;;;6064740;29;20045;-84
2023/12/21 08:53:02;;;;;;;64.13;37.58;;;;;;;;;;6083886;29;20108;-83
2023/12/21 08:56:04;;;;;;;62.78;36.83;;;;;;;;;;6084057;29;20125;-84
2023/12/21 08:59:07;;;;;;;61.45;37.15;;;;;;;;;;6081098;29;20051;-79
2023/12/21 09:02:11;;;;;;;64.60;36.78;;;;;;;;;;6084335;29;20391;-78
2023/12/21 09:05:13;;;;;;;64.28;37.78;;;;;;;;;;6084429;29;20114;-78
2023/12/21 09:08:15;;;;;;;63.47;36.35;;;;;;;;;;6086324;29;20076;-80
2023/12/21 09:11:17;;;;;;;65.22;36.58;;;;;;;;;;6085619;29;20052;-78
2023/12/21 09:14:19;;;;;;;62.30;35.75;;;;;;;;;;6085541;29;20052;-80
2023/12/21 09:17:22;;;;;;;62.20;36.40;;;;;;;;;;6081272;29;20225;-80
2023/12/21 09:20:25;;;;;;;61.50;37.10;;;;;;;;;;6086525;29;20132;-80
2023/12/21 09:23:26;;;;;;;60.65;35.47;;;;;;;;;;6084045;29;20057;-80
2023/12/21 09:26:28;;;;;;;63.15;36.95;;;;;;;;;;6082539;29;20159;-81
2023/12/21 09:29:30;;;;;;;68.28;37.60;;;;;;;;;;6079456;29;20067;-80
2023/12/21 09:32:33;;;;;;;65.85;37.80;;;;;;;;;;6080872;29;20058;-80
2023/12/21 09:35:35;;;;;;;66.13;37.30;;;;;;;;;;6082566;29;20561;-80
2023/12/21 09:38:36;;;;;;;64.55;38.00;;;;;;;;;;6085059;29;20055;-80
2023/12/21 09:41:38;;;;;;;66.93;37.05;;;;;;;;;;6087932;29;20072;-79
2023/12/21 09:44:40;;;;;;;55.80;34.60;;;;;;;;;;6087268;29;20044;-80
2023/12/21 09:47:43;;;;;;;52.50;33.08;;;;;;;;;;6086069;29;20116;-80
2023/12/21 09:50:46;;;;;;;48.47;32.15;;;;;;;;;;6082878;29;20056;-80
2023/12/21 09:53:48;;;;;;;52.58;31.23;;;;;;;;;;6083408;29;20226;-80
2023/12/21 09:56:51;;;;;;;53.13;31.10;;;;;;;;;;6082724;29;20233;-80
2023/12/21 09:59:54;;;;;;;53.80;31.75;;;;;;;;;;6084535;29;20076;-79
2023/12/21 10:02:57;;;;;;;55.00;32.42;;;;;;;;;;6090338;29;20096;-80
2023/12/21 10:05:58;;;;;;;57.67;31.20;;;;;;;;;;6085377;29;20060;-79
2023/12/21 10:09:02;;;;;;;52.20;31.70;;;;;;;;;;6081792;29;20348;-78
2023/12/21 10:12:04;;;;;;;50.90;32.63;;;;;;;;;;6083191;29;20289;-79
2023/12/21 10:15:07;;;;;;;54.85;32.25;;;;;;;;;;6079492;29;20056;-80
2023/12/21 10:18:10;;;;;;;50.53;31.15;;;;;;;;;;6080792;29;20045;-81
2023/12/21 10:21:12;;;;;;;51.35;31.95;;;;;;;;;;6073878;29;20068;-80
2023/12/21 10:24:14;;;;;;;49.75;30.92;;;;;;;;;;6085327;29;20372;-81
2023/12/21 10:27:17;;;;;;;55.92;32.85;;;;;;;;;;6085165;29;20056;-81
2023/12/21 10:30:22;;;;;;;49.50;30.40;;;;;;;;;;6083699;29;20311;-80
2023/12/21 10:33:28;;;;;;;50.97;31.30;;;;;;;;;;6082984;29;20054;-79
2023/12/21 10:36:32;;;;;;;53.78;32.13;;;;;;;;;;6084860;29;20076;-79
2023/12/21 10:39:34;;;;;;;50.47;31.80;;;;;;;;;;6085072;29;20342;-80
2023/12/21 10:42:35;;;;;;;56.45;32.65;;;;;;;;;;6082430;29;20044;-80
2023/12/21 10:45:37;;;;;;;56.63;33.75;;;;;;;;;;6080936;29;20056;-80
2023/12/21 10:48:40;;;;;;;60.13;32.20;;;;;;;;;;6077800;29;20067;-80
2023/12/21 10:51:43;;;;;;;52.78;33.25;;;;;;;;;;6083852;29;20067;-81
2023/12/21 10:54:45;;;;;;;51.50;31.83;;;;;;;;;;6083910;29;20055;-80
2023/12/21 10:57:48;;;;;;;49.97;33.10;;;;;;;;;;6084589;29;20060;-81
2023/12/21 11:00:51;;;;;;;60.83;35.35;;;;;;;;;;6084814;29;20056;-80
2023/12/21 11:03:55;;;;;;;52.50;33.57;;;;;;;;;;6082325;29;20056;-79
2023/12/21 11:06:58;;;;;;;57.38;32.45;;;;;;;;;;6078290;29;20352;-80
2023/12/21 11:10:01;;;;;;;51.17;32.15;;;;;;;;;;6077462;29;20056;-79
2023/12/21 11:13:03;;;;;;;50.63;31.27;;;;;;;;;;6082490;29;20053;-81
2023/12/21 11:16:05;;;;;;;45.05;29.75;;;;;;;;;;6079114;29;20052;-80
2023/12/21 11:19:11;;;;;;;55.00;31.38;;;;;;;;;;6086879;29;20371;-88
2023/12/21 11:22:13;;;;;;;48.25;30.17;;;;;;;;;;6082743;29;20187;-89
2023/12/21 11:25:22;;;;;;;45.75;29.05;;;;;;;;;;6085205;29;20056;-88
2023/12/21 11:28:28;;;;;;;41.58;27.17;;;;;;;;;;6085528;29;20060;-86
2023/12/21 11:31:36;;;;;;;39.75;25.95;;;;;;;;;;6084940;29;20048;-87
2023/12/21 11:34:40;;;;;;;46.95;29.10;;;;;;;;;;6084458;29;20570;-89
2023/12/21 11:37:43;;;;;;;48.03;28.40;;;;;;;;;;6081607;29;20052;-88
2023/12/21 11:40:47;;;;;;;48.90;28.93;;;;;;;;;;6085984;29;20085;-85
2023/12/21 11:43:56;;;;;;;43.50;28.92;;;;;;;;;;6086064;29;20848;-87
2023/12/21 11:46:59;;;;;;;44.95;27.85;;;;;;;;;;6079898;29;20078;-87
2023/12/21 11:50:09;;;;;;;51.63;30.92;;;;;;;;;;6085370;29;20064;-87
2023/12/21 11:53:11;;;;;;;51.35;31.50;;;;;;;;;;6081549;29;20056;-87
2023/12/21 11:56:14;;;;;;;46.63;30.30;;;;;;;;;;6079613;29;20058;-87
2023/12/21 11:59:18;;;;;;;44.65;28.55;;;;;;;;;;6080581;29;20068;-87
2023/12/21 12:02:21;;;;;;;44.08;28.63;;;;;;;;;;6082260;29;20080;-86
2023/12/21 12:05:24;;;;;;;44.00;29.20;;;;;;;;;;6081347;29;20403;-86
2023/12/21 12:08:26;;;;;;;46.63;27.55;;;;;;;;;;6082752;29;20060;-86
2023/12/21 12:11:28;;;;;;;40.53;27.40;;;;;;;;;;6087675;29;20048;-87
2023/12/21 12:14:30;;;;;;;43.55;27.00;;;;;;;;;;6085465;29;20060;-87
2023/12/21 12:17:31;;;;;;;44.22;25.98;;;;;;;;;;6087618;29;20070;-87
2023/12/21 12:20:35;;;;;;;44.67;26.10;;;;;;;;;;6085028;29;20056;-86
2023/12/21 12:23:36;;;;;;;42.13;26.87;;;;;;;;;;6092366;29;20271;-86
2023/12/21 12:26:38;;;;;;;42.58;26.48;;;;;;;;;;6085195;29;20083;-88
2023/12/21 12:29:41;;;;;;;38.40;24.85;;;;;;;;;;6088879;29;20052;-87
2023/12/21 12:32:43;;;;;;;40.58;25.48;;;;;;;;;;6087018;29;20049;-88
2023/12/21 12:35:49;;;;;;;41.33;25.73;;;;;;;;;;6083454;29;20044;-86
2023/12/21 12:38:55;;;;;;;39.78;24.95;;;;;;;;;;6085139;29;20062;-87
2023/12/21 12:41:58;;;;;;;41.55;25.83;;;;;;;;;;6082847;29;20409;-87
2023/12/21 12:45:00;;;;;;;38.72;24.15;;;;;;;;;;6086114;29;20057;-87
2023/12/21 12:48:03;;;;;;;38.63;24.35;;;;;;;;;;6081677;29;20053;-86
2023/12/21 12:51:11;;;;;;;39.88;25.25;;;;;;;;;;6081189;29;20059;-87
2023/12/21 12:54:13;;;;;;;36.97;24.27;;;;;;;;;;6082317;29;20075;-86
2023/12/21 12:57:16;;;;;;;35.75;23.75;;;;;;;;;;6085544;29;20256;-87
2023/12/21 13:00:19;;;;;;;34.80;23.50;;;;;;;;;;6090180;29;20136;-87
2023/12/21 13:03:20;;;;;;;40.28;24.52;;;;;;;;;;6087733;29;20044;-87
2023/12/21 13:06:24;;;;;;;36.65;22.83;;;;;;;;;;6092205;29;20064;-86
2023/12/21 13:09:26;;;;;;;35.30;21.40;;;;;;;;;;6089760;29;20357;-86
2023/12/21 13:12:28;;;;;;;36.60;23.48;;;;;;;;;;6088824;29;20664;-86
2023/12/21 13:15:30;;;;;;;33.05;21.40;;;;;;;;;;6084823;29;20067;-87
2023/12/21 13:18:33;;;;;;;32.70;21.02;;;;;;;;;;6083802;29;20057;-87
2023/12/21 13:21:36;;;;;;;29.92;20.45;;;;;;;;;;6087311;29;20052;-87
2023/12/21 13:24:39;;;;;;;37.00;23.13;;;;;;;;;;6087674;29;20060;-87
2023/12/21 13:27:41;;;;;;;32.50;21.98;;;;;;;;;;6084886;29;20464;-87
2023/12/21 13:30:42;;;;;;;33.55;21.30;;;;;;;;;;6090100;29;20052;-88
2023/12/21 13:33:44;;;;;;;35.83;22.35;;;;;;;;;;6085952;29;20055;-88
2023/12/21 13:36:47;;;;;;;31.13;21.40;;;;;;;;;;6085126;29;20045;-78
2023/12/21 13:39:49;;;;;;;32.08;20.90;;;;;;;;;;6083257;29;20067;-81
2023/12/21 13:42:51;;;;;;;36.55;22.85;;;;;;;;;;6084359;29;20378;-81
2023/12/21 13:45:54;;;;;;;34.03;22.83;;;;;;;;;;6084145;29;20255;-80
2023/12/21 13:48:55;;;;;;;34.58;21.88;;;;;;;;;;6082551;29;20057;-81
2023/12/21 13:51:58;;;;;;;35.92;23.25;;;;;;;;;;6084183;29;20082;-80
2023/12/21 13:55:00;;;;;;;38.73;24.23;;;;;;;;;;6087339;29;20076;-81
2023/12/21 13:58:02;;;;;;;107.47;54.33;;;;;;;;;;6083263;29;20049;-81
2023/12/21 14:01:04;;;;;;;74.63;40.95;;;;;;;;;;6083561;29;20048;-80
2023/12/21 14:04:06;;;;;;;49.10;28.50;;;;;;;;;;6084151;29;20056;-81
2023/12/21 14:07:09;;;;;;;120.55;57.25;;;;;;;;;;6082725;29;20339;-81
2023/12/21 14:10:11;;;;;;;48.20;28.35;;;;;;;;;;6084439;29;20069;-80
2023/12/21 14:13:13;;;;;;;47.63;26.35;;;;;;;;;;6084228;29;20064;-80
2023/12/21 14:16:14;;;;;;;37.78;23.60;;;;;;;;;;6083792;29;20064;-81
2023/12/21 14:19:16;;;;;;;38.35;23.10;;;;;;;;;;6084159;29;20052;-79
2023/12/21 14:22:19;;;;;;;35.65;23.23;;;;;;;;;;6080236;29;20052;-80
2023/12/21 14:25:21;;;;;;;36.45;22.90;;;;;;;;;;6078864;29;20064;-81
2023/12/21 14:28:24;;;;;;;39.78;23.27;;;;;;;;;;6080815;29;20048;-80
2023/12/21 14:31:26;;;;;;;37.13;21.88;;;;;;;;;;6078661;29;20048;-82
2023/12/21 14:34:28;;;;;;;34.35;21.42;;;;;;;;;;6085830;29;20344;-81
2023/12/21 14:37:31;;;;;;;33.00;21.85;;;;;;;;;;6082361;29;20112;-81
2023/12/21 14:40:32;;;;;;;35.40;22.13;;;;;;;;;;6082879;29;20060;-80
2023/12/21 14:43:34;;;;;;;35.53;22.08;;;;;;;;;;6078790;29;20096;-80
2023/12/21 14:46:40;;;;;;;37.20;22.95;;;;;;;;;;6085215;29;20059;-87
2023/12/21 14:49:42;;;;;;;40.75;24.17;;;;;;;;;;6089428;29;20056;-87
2023/12/21 14:52:45;;;;;;;42.33;23.90;;;;;;;;;;6086404;29;20127;-86
2023/12/21 14:55:48;;;;;;;40.47;23.67;;;;;;;;;;6088942;29;20067;-86
2023/12/21 14:58:50;;;;;;;40.97;25.33;;;;;;;;;;6084911;29;20045;-89
2023/12/21 15:01:52;;;;;;;45.53;25.63;;;;;;;;;;6087059;29;20329;-86
2023/12/21 15:04:53;;;;;;;43.03;26.42;;;;;;;;;;6083816;29;20348;-87
2023/12/21 15:07:56;;;;;;;41.13;26.67;;;;;;;;;;6087856;29;20049;-85
2023/12/21 15:10:58;;;;;;;43.35;26.40;;;;;;;;;;6082742;29;20070;-86
2023/12/21 15:14:00;;;;;;;43.75;26.52;;;;;;;;;;6081905;29;20056;-86
2023/12/21 15:17:02;;;;;;;43.08;27.45;;;;;;;;;;6079672;29;20052;-86
2023/12/21 15:20:06;;;;;;;43.35;25.52;;;;;;;;;;6084856;29;20056;-86
2023/12/21 15:23:09;;;;;;;39.60;24.23;;;;;;;;;;6082039;29;20049;-87
2023/12/21 15:26:11;;;;;;;45.25;24.38;;;;;;;;;;6082411;29;20073;-87
2023/12/21 15:29:13;;;;;;;42.88;25.55;;;;;;;;;;6082014;29;20053;-88
2023/12/21 15:32:15;;;;;;;45.38;25.23;;;;;;;;;;6082717;29;20052;-87
2023/12/21 15:35:17;;;;;;;48.85;26.42;;;;;;;;;;6079189;29;20063;-87
2023/12/21 15:38:20;;;;;;;45.30;26.38;;;;;;;;;;6084589;29;20247;-86
2023/12/21 15:41:22;;;;;;;44.20;26.10;;;;;;;;;;6080442;29;20045;-87
2023/12/21 15:44:24;;;;;;;47.38;25.75;;;;;;;;;;6080544;29;20339;-86
2023/12/21 15:47:28;;;;;;;47.22;27.05;;;;;;;;;;6078160;29;20108;-87
2023/12/21 15:50:29;;;;;;;39.67;25.03;;;;;;;;;;6082898;29;20719;-88
2023/12/21 15:53:33;;;;;;;45.67;26.75;;;;;;;;;;6088672;29;20063;-88
2023/12/21 15:56:35;;;;;;;41.67;25.90;;;;;;;;;;6083250;29;20422;-80
2023/12/21 15:59:36;;;;;;;51.92;26.73;;;;;;;;;;6080286;29;20120;-80
2023/12/21 16:02:38;;;;;;;44.17;26.90;;;;;;;;;;6080002;29;20064;-81
2023/12/21 16:05:40;;;;;;;46.50;26.42;;;;;;;;;;6079785;29;20117;-79
2023/12/21 16:08:43;;;;;;;44.53;26.45;;;;;;;;;;6081192;29;20048;-81
2023/12/21 16:11:45;;;;;;;47.80;28.63;;;;;;;;;;6087494;29;20059;-79
2023/12/21 16:14:46;;;;;;;54.15;28.13;;;;;;;;;;6087942;29;20335;-81
2023/12/21 16:17:48;;;;;;;49.70;28.15;;;;;;;;;;6085667;29;20055;-81
2023/12/21 16:20:50;;;;;;;53.20;28.88;;;;;;;;;;6087761;29;20068;-81
2023/12/21 16:23:53;;;;;;;49.80;31.40;;;;;;;;;;6087782;29;20052;-80
2023/12/21 16:26:55;;;;;;;49.00;29.90;;;;;;;;;;6092617;29;20111;-81
2023/12/21 16:29:56;;;;;;;47.60;29.88;;;;;;;;;;6092369;29;20414;-80
2023/12/21 16:32:58;;;;;;;49.20;29.55;;;;;;;;;;6086294;29;20049;-81
2023/12/21 16:36:00;;;;;;;49.60;29.98;;;;;;;;;;6085263;29;20053;-81
2023/12/21 16:39:04;;;;;;;51.47;30.48;;;;;;;;;;6093453;29;20059;-80
2023/12/21 16:42:06;;;;;;;52.75;31.23;;;;;;;;;;6091402;29;20344;-80
2023/12/21 16:45:10;;;;;;;47.22;30.25;;;;;;;;;;6086098;29;20264;-80
2023/12/21 16:48:11;;;;;;;50.72;31.15;;;;;;;;;;6086043;29;20120;-80
2023/12/21 16:51:13;;;;;;;49.55;30.58;;;;;;;;;;6088185;29;20400;-80
2023/12/21 16:54:16;;;;;;;51.55;32.45;;;;;;;;;;6084166;29;20065;-79
2023/12/21 16:57:20;;;;;;;48.88;31.45;;;;;;;;;;6085276;29;20075;-81
2023/12/21 17:00:22;;;;;;;47.05;30.55;;;;;;;;;;6089082;29;20132;-81
2023/12/21 17:03:24;;;;;;;50.83;31.70;;;;;;;;;;6085484;29;20061;-81
2023/12/21 17:06:27;;;;;;;51.40;31.45;;;;;;;;;;6068619;29;20111;-87
2023/12/21 17:09:30;;;;;;;50.38;30.50;;;;;;;;;;6088744;29;20056;-88
2023/12/21 17:12:32;;;;;;;52.40;30.45;;;;;;;;;;6090624;29;20065;-88
2023/12/21 17:15:34;;;;;;;48.58;30.20;;;;;;;;;;6093122;29;20068;-88
2023/12/21 17:18:37;;;;;;;46.30;29.92;;;;;;;;;;6094830;29;20087;-85
2023/12/21 17:21:39;;;;;;;49.70;30.73;;;;;;;;;;6087047;29;20060;-84
2023/12/21 17:24:42;;;;;;;51.45;30.83;;;;;;;;;;6089240;29;20104;-86
2023/12/21 17:27:45;;;;;;;45.25;30.08;;;;;;;;;;6090105;29;20056;-89
2023/12/21 17:30:52;;;;;;;49.33;28.73;;;;;;;;;;6089341;29;20237;-87
2023/12/21 17:33:54;;;;;;;45.83;27.98;;;;;;;;;;6084065;29;20067;-86
2023/12/21 17:36:57;;;;;;;47.33;28.77;;;;;;;;;;6088021;29;20056;-87
2023/12/21 17:40:05;;;;;;;46.42;29.52;;;;;;;;;;6086998;29;20048;-86
2023/12/21 17:43:06;;;;;;;48.42;29.73;;;;;;;;;;6089000;29;20119;-88